Time;durP1;ratioP1;P1;durP2;ratioP2;P2;SDS_P1;SDS_P2;PMS_P1;PMS_P2;Temp;Humidity;BMP_temperature;BMP_pressure;BME280_temperature;BME280_humidity;BME280_pressure;Samples;Min_cycle;Max_cycle;Signal;HPM_P1;HPM_P2
2023/05/09 00:02:14;;;;;;;12.15;8.57;;;22.10;70.20;;;;;;4904845;28;90560;-89
2023/05/09 00:04:39;;;;;;;11.48;8.90;;;22.10;70.20;;;;;;4888404;28;86434;-91
2023/05/09 00:07:06;;;;;;;11.45;9.43;;;22.10;70.20;;;;;;4891755;28;85884;-89
2023/05/09 00:09:31;;;;;;;12.88;9.00;;;22.10;70.20;;;;;;4891371;28;85998;-89
2023/05/09 00:11:57;;;;;;;13.40;8.82;;;22.10;70.30;;;;;;4889350;28;89006;-89
2023/05/09 00:14:23;;;;;;;11.52;9.48;;;22.10;70.30;;;;;;4891162;28;86174;-90
2023/05/09 00:16:49;;;;;;;10.40;8.60;;;22.00;70.20;;;;;;4888851;28;86778;-89
2023/05/09 00:19:15;;;;;;;13.73;9.00;;;22.00;70.30;;;;;;4888748;28;89877;-88
2023/05/09 00:21:40;;;;;;;10.95;8.85;;;22.00;70.20;;;;;;4889709;28;86161;-88
2023/05/09 00:24:06;;;;;;;13.35;8.70;;;22.00;70.40;;;;;;4888541;28;86064;-88
2023/05/09 00:26:32;;;;;;;12.48;9.90;;;22.00;70.20;;;;;;4890280;28;86550;-89
2023/05/09 00:28:57;;;;;;;13.18;9.20;;;22.00;70.40;;;;;;4889374;28;89636;-89
2023/05/09 00:31:23;;;;;;;12.27;9.15;;;22.00;70.30;;;;;;4890884;28;86130;-89
2023/05/09 00:33:49;;;;;;;12.60;9.23;;;22.00;70.70;;;;;;4888924;28;87929;-88
2023/05/09 00:36:14;;;;;;;11.10;8.68;;;22.00;70.40;;;;;;4894134;28;87584;-88
2023/05/09 00:38:40;;;;;;;10.88;8.80;;;22.00;70.50;;;;;;4892998;28;89476;-89
2023/05/09 00:41:06;;;;;;;11.63;9.38;;;22.00;70.50;;;;;;4909149;28;88971;-89
2023/05/09 00:43:31;;;;;;;10.55;8.98;;;22.00;70.50;;;;;;4892333;28;86317;-88
2023/05/09 00:45:57;;;;;;;13.07;9.05;;;22.00;70.40;;;;;;4892314;28;85961;-89
2023/05/09 00:48:23;;;;;;;11.52;8.82;;;22.00;70.50;;;;;;4892048;28;88946;-90
2023/05/09 00:50:51;;;;;;;11.88;9.07;;;22.00;70.40;;;;;;4891744;28;87563;-88
2023/05/09 00:53:21;;;;;;;10.65;7.93;;;21.90;70.40;;;;;;4893510;28;85899;-89
2023/05/09 00:55:47;;;;;;;12.43;9.18;;;21.90;70.40;;;;;;4908525;28;86543;-88
2023/05/09 00:58:13;;;;;;;10.30;7.65;;;21.90;70.40;;;;;;4892101;28;89513;-88
2023/05/09 01:00:39;;;;;;;11.75;8.43;;;22.00;70.20;;;;;;4907625;28;87816;-88
2023/05/09 01:03:05;;;;;;;10.65;8.45;;;21.90;70.20;;;;;;4893059;28;86170;-89
2023/05/09 01:06:00;;;;;;;11.38;8.25;;;21.90;70.00;;;;;;4892898;28;86236;-88
2023/05/09 01:08:29;;;;;;;10.90;8.77;;;22.00;70.20;;;;;;4873843;28;95099;-89
2023/05/09 01:11:05;;;;;;;10.88;9.38;;;21.90;70.20;;;;;;4904516;28;89413;-88
2023/05/09 01:13:31;;;;;;;13.00;8.43;;;21.90;70.20;;;;;;4907460;28;90040;-89
2023/05/09 01:16:00;;;;;;;10.32;8.38;;;21.90;70.20;;;;;;4890388;28;87459;-88
2023/05/09 01:18:38;;;;;;;12.30;9.37;;;21.90;70.20;;;;;;4906461;28;89178;-88
2023/05/09 01:21:09;;;;;;;10.18;8.27;;;21.90;70.20;;;;;;4905458;28;91342;-91
2023/05/09 01:23:35;;;;;;;11.10;8.52;;;21.90;70.20;;;;;;4906164;28;90029;-90
2023/05/09 01:26:24;;;;;;;11.45;7.78;;;21.90;70.10;;;;;;4906012;28;87933;-89
2023/05/09 01:29:09;;;;;;;11.60;8.40;;;21.90;70.10;;;;;;4906918;28;89315;-89
2023/05/09 01:31:39;;;;;;;11.68;8.18;;;21.90;70.30;;;;;;4905490;28;90607;-90
2023/05/09 01:34:07;;;;;;;9.82;7.57;;;21.90;70.10;;;;;;4905860;28;90189;-90
2023/05/09 01:36:35;;;;;;;10.90;8.18;;;21.90;70.10;;;;;;4906322;28;87558;-89
2023/05/09 01:39:03;;;;;;;10.77;8.07;;;21.90;70.10;;;;;;4891151;28;90387;-89
2023/05/09 01:41:33;;;;;;;9.52;7.78;;;21.90;70.10;;;;;;4907067;28;91042;-88
2023/05/09 01:44:02;;;;;;;10.93;8.88;;;21.90;70.10;;;;;;4904193;28;90925;-88
2023/05/09 01:46:29;;;;;;;10.07;8.10;;;21.80;69.80;;;;;;4888443;28;88134;-88
2023/05/09 01:48:56;;;;;;;11.52;8.45;;;21.90;70.10;;;;;;4905391;28;88296;-89
2023/05/09 01:51:23;;;;;;;11.60;8.20;;;21.80;70.10;;;;;;4889651;28;90774;-89
2023/05/09 01:53:50;;;;;;;9.75;7.72;;;21.90;70.20;;;;;;4906250;28;88254;-90
2023/05/09 01:56:17;;;;;;;9.30;7.30;;;21.80;70.20;;;;;;4890889;28;87458;-88
2023/05/09 01:58:44;;;;;;;9.40;7.20;;;21.90;70.20;;;;;;4889327;28;89985;-89
2023/05/09 02:01:10;;;;;;;10.32;7.80;;;21.80;70.10;;;;;;4891376;28;88821;-91
2023/05/09 02:03:38;;;;;;;12.13;9.55;;;21.80;70.30;;;;;;4890291;28;88974;-88
2023/05/09 02:06:04;;;;;;;9.20;7.53;;;21.80;70.40;;;;;;4905140;28;87476;-88
2023/05/09 02:08:31;;;;;;;10.63;8.05;;;21.80;70.10;;;;;;4891190;28;88412;-88
2023/05/09 02:10:57;;;;;;;10.80;8.32;;;21.80;70.30;;;;;;4890398;28;88871;-88
2023/05/09 02:13:23;;;;;;;9.23;7.45;;;21.80;70.40;;;;;;4905429;28;91162;-89
2023/05/09 02:15:49;;;;;;;9.25;7.65;;;21.80;70.20;;;;;;4890231;28;87164;-90
2023/05/09 02:18:15;;;;;;;10.38;7.85;;;21.80;70.20;;;;;;4905206;28;88472;-88
2023/05/09 02:20:41;;;;;;;9.43;7.65;;;21.80;70.00;;;;;;4906694;28;90386;-88
2023/05/09 02:23:07;;;;;;;8.98;8.00;;;21.80;70.10;;;;;;4889348;28;90807;-89
2023/05/09 02:25:33;;;;;;;9.90;7.50;;;21.80;70.20;;;;;;4890006;28;87558;-90
2023/05/09 02:28:00;;;;;;;10.10;7.93;;;21.80;70.30;;;;;;4890066;28;89227;-89
2023/05/09 02:30:34;;;;;;;10.07;7.95;;;21.80;70.90;;;;;;4888858;28;91244;-88
2023/05/09 02:33:03;;;;;;;10.60;7.55;;;21.80;70.20;;;;;;4906042;28;89148;-91
2023/05/09 02:35:29;;;;;;;9.30;7.15;;;21.80;70.20;;;;;;4892001;28;89052;-89
2023/05/09 02:37:57;;;;;;;9.20;7.70;;;21.80;70.10;;;;;;4905733;28;90146;-92
2023/05/09 02:40:25;;;;;;;8.77;7.07;;;21.80;70.10;;;;;;4906652;28;90256;-89
2023/05/09 02:42:50;;;;;;;10.05;7.40;;;21.80;70.10;;;;;;4890143;28;90275;-90
2023/05/09 02:45:16;;;;;;;10.50;8.40;;;21.80;70.30;;;;;;4890014;28;87498;-88
2023/05/09 02:47:42;;;;;;;9.35;7.35;;;21.70;70.10;;;;;;4891196;28;89641;-87
2023/05/09 02:50:08;;;;;;;8.55;7.10;;;21.70;70.20;;;;;;4890243;28;89374;-87
2023/05/09 02:52:33;;;;;;;8.93;7.32;;;21.70;70.20;;;;;;4890209;28;89529;-87
2023/05/09 02:54:59;;;;;;;10.20;7.68;;;21.70;70.10;;;;;;4906285;28;88315;-89
2023/05/09 02:57:25;;;;;;;10.95;7.70;;;21.70;70.10;;;;;;4890211;28;88471;-87
2023/05/09 02:59:50;;;;;;;8.90;7.15;;;21.70;70.10;;;;;;4889366;28;91114;-89
2023/05/09 03:02:16;;;;;;;9.63;7.22;;;21.70;70.20;;;;;;4892756;28;88336;-88
2023/05/09 03:04:42;;;;;;;8.80;7.22;;;21.70;70.20;;;;;;4890052;28;87828;-88
2023/05/09 03:07:07;;;;;;;7.72;6.60;;;21.70;70.30;;;;;;4891859;28;87979;-88
2023/05/09 03:09:33;;;;;;;9.35;7.43;;;21.70;70.90;;;;;;4890311;28;90922;-88
2023/05/09 03:11:59;;;;;;;8.50;6.45;;;21.70;70.30;;;;;;4888145;28;89860;-89
2023/05/09 03:14:24;;;;;;;9.20;7.13;;;21.60;70.10;;;;;;4891634;28;87965;-88
2023/05/09 03:16:50;;;;;;;10.63;7.90;;;21.70;70.20;;;;;;4890990;28;89206;-88
2023/05/09 03:19:16;;;;;;;8.57;7.03;;;21.60;70.10;;;;;;4889622;28;89535;-89
2023/05/09 03:21:41;;;;;;;8.52;7.40;;;21.60;70.10;;;;;;4889564;28;89257;-87
2023/05/09 03:24:09;;;;;;;11.68;7.68;;;21.60;70.00;;;;;;4888585;28;88587;-87
2023/05/09 03:26:34;;;;;;;7.82;6.82;;;21.60;70.10;;;;;;4905232;28;89641;-87
2023/05/09 03:29:01;;;;;;;7.72;6.10;;;21.60;70.10;;;;;;4888238;28;90638;-89
2023/05/09 03:31:26;;;;;;;7.00;6.30;;;21.60;70.10;;;;;;4889109;28;89090;-88
2023/05/09 03:33:52;;;;;;;8.80;6.50;;;21.60;70.20;;;;;;4905552;28;87612;-89
2023/05/09 03:36:18;;;;;;;8.25;6.63;;;21.60;70.10;;;;;;4891640;28;87721;-88
2023/05/09 03:38:44;;;;;;;8.77;7.07;;;21.60;70.00;;;;;;4892430;28;88028;-87
2023/05/09 03:41:11;;;;;;;8.30;6.32;;;21.60;70.10;;;;;;4889598;28;92845;-88
2023/05/09 03:43:36;;;;;;;7.55;6.75;;;21.60;70.10;;;;;;4906860;28;87372;-91
2023/05/09 03:46:02;;;;;;;9.07;7.57;;;21.60;70.00;;;;;;4891564;28;87511;-89
2023/05/09 03:48:28;;;;;;;9.32;6.75;;;21.60;70.00;;;;;;4890641;28;88624;-88
2023/05/09 03:50:54;;;;;;;9.07;7.00;;;21.60;70.20;;;;;;4889432;28;91423;-88
2023/05/09 03:53:19;;;;;;;8.30;6.82;;;21.60;70.10;;;;;;4890418;28;87843;-89
2023/05/09 03:55:45;;;;;;;8.60;6.78;;;21.50;70.20;;;;;;4889378;28;88216;-88
2023/05/09 03:58:11;;;;;;;9.65;6.93;;;21.60;70.20;;;;;;4890596;28;88038;-89
2023/05/09 04:00:37;;;;;;;8.43;6.72;;;21.60;70.10;;;;;;4890533;28;89857;-89
2023/05/09 04:03:03;;;;;;;7.97;6.47;;;21.60;70.20;;;;;;4890192;28;87935;-88
2023/05/09 04:05:29;;;;;;;8.65;6.57;;;21.50;70.10;;;;;;4905108;28;89287;-88
2023/05/09 04:07:55;;;;;;;9.15;7.05;;;21.60;70.30;;;;;;4887323;28;91009;-89
2023/05/09 04:10:20;;;;;;;7.55;6.13;;;21.50;70.10;;;;;;4901686;28;90805;-89
2023/05/09 04:12:46;;;;;;;7.53;6.28;;;21.50;70.10;;;;;;4886534;28;88440;-88
2023/05/09 04:15:11;;;;;;;8.50;6.22;;;21.50;70.00;;;;;;4887106;28;89601;-88
2023/05/09 04:17:37;;;;;;;7.88;6.82;;;21.50;69.90;;;;;;4886995;28;91430;-88
2023/05/09 04:20:03;;;;;;;8.60;6.47;;;21.60;70.80;;;;;;4887989;28;90561;-88
2023/05/09 04:22:29;;;;;;;9.68;6.90;;;21.50;70.00;;;;;;4904052;28;87743;-89
2023/05/09 04:24:56;;;;;;;7.32;6.50;;;21.50;69.90;;;;;;4887899;28;87861;-88
2023/05/09 04:27:22;;;;;;;7.88;6.43;;;21.50;70.10;;;;;;4888526;28;90505;-88
2023/05/09 04:29:48;;;;;;;7.55;6.45;;;21.50;70.00;;;;;;4904375;28;90300;-87
2023/05/09 04:32:13;;;;;;;8.43;6.40;;;21.50;70.00;;;;;;4888490;28;88264;-89
2023/05/09 04:34:39;;;;;;;7.63;6.78;;;21.60;70.10;;;;;;4887703;28;90111;-89
2023/05/09 04:37:05;;;;;;;6.75;5.97;;;21.50;69.90;;;;;;4887985;28;91854;-89
2023/05/09 04:39:30;;;;;;;7.95;6.28;;;21.50;70.00;;;;;;4903226;28;91206;-88
2023/05/09 04:41:56;;;;;;;7.50;6.13;;;21.50;69.90;;;;;;4903895;28;87774;-89
2023/05/09 04:44:23;;;;;;;8.40;6.40;;;21.50;70.10;;;;;;4889273;28;89103;-89
2023/05/09 04:46:49;;;;;;;8.02;6.80;;;21.50;70.10;;;;;;4887841;28;90797;-87
2023/05/09 04:49:15;;;;;;;6.85;6.07;;;21.50;70.00;;;;;;4886633;28;90084;-88
2023/05/09 04:51:40;;;;;;;6.82;6.13;;;21.50;70.00;;;;;;4886925;28;87898;-89
2023/05/09 04:54:06;;;;;;;7.57;5.95;;;21.50;69.90;;;;;;4904335;28;88444;-88
2023/05/09 04:56:32;;;;;;;6.13;5.53;;;21.50;69.90;;;;;;4888052;28;89380;-89
2023/05/09 04:58:57;;;;;;;7.72;6.25;;;21.50;69.90;;;;;;4902161;28;90722;-89
2023/05/09 05:01:23;;;;;;;8.68;6.57;;;21.50;69.80;;;;;;4886160;28;88544;-88
2023/05/09 05:03:49;;;;;;;8.18;5.95;;;21.50;69.90;;;;;;4887357;28;89519;-88
2023/05/09 05:06:14;;;;;;;8.25;6.40;;;21.50;69.90;;;;;;4887251;28;90584;-88
2023/05/09 05:08:40;;;;;;;6.30;5.53;;;21.50;69.90;;;;;;4887536;28;90379;-89
2023/05/09 05:11:05;;;;;;;7.05;5.80;;;21.50;69.80;;;;;;4886963;28;87013;-88
2023/05/09 05:13:31;;;;;;;6.60;5.85;;;21.50;70.00;;;;;;4886453;28;88509;-88
2023/05/09 05:15:57;;;;;;;7.50;6.15;;;21.50;69.90;;;;;;4887436;28;88116;-88
2023/05/09 05:18:23;;;;;;;7.28;6.30;;;21.50;69.70;;;;;;4889252;28;88303;-87
2023/05/09 05:20:49;;;;;;;8.10;6.13;;;21.50;69.90;;;;;;4887440;28;87821;-89
2023/05/09 05:23:14;;;;;;;8.27;6.05;;;21.50;70.60;;;;;;4888874;28;89586;-88
2023/05/09 05:25:40;;;;;;;6.93;6.10;;;21.50;69.90;;;;;;4906162;28;90709;-90
2023/05/09 05:28:05;;;;;;;6.15;5.38;;;21.50;69.80;;;;;;4889421;28;90237;-88
2023/05/09 05:30:31;;;;;;;6.80;5.53;;;21.50;69.90;;;;;;4890735;28;87617;-88
2023/05/09 05:32:57;;;;;;;7.45;5.90;;;21.50;69.80;;;;;;4891167;28;87906;-88
2023/05/09 05:35:23;;;;;;;6.97;5.60;;;21.50;69.70;;;;;;4890694;28;90189;-88
2023/05/09 05:37:49;;;;;;;7.65;6.20;;;21.50;69.70;;;;;;4890008;28;92985;-88
2023/05/09 05:40:15;;;;;;;8.27;6.68;;;21.50;69.70;;;;;;4892226;28;87887;-89
2023/05/09 05:42:40;;;;;;;7.32;5.78;;;21.50;69.80;;;;;;4891989;28;87058;-88
2023/05/09 05:45:07;;;;;;;6.57;5.82;;;21.50;69.60;;;;;;4890700;28;90357;-88
2023/05/09 05:47:34;;;;;;;7.50;6.13;;;21.50;69.70;;;;;;4890229;28;89974;-88
2023/05/09 05:50:00;;;;;;;6.13;5.40;;;21.50;70.00;;;;;;4889200;28;88528;-90
2023/05/09 05:52:26;;;;;;;7.35;5.68;;;21.50;69.80;;;;;;4889651;28;88565;-88
2023/05/09 05:54:52;;;;;;;6.85;5.72;;;21.50;69.70;;;;;;4892020;28;87719;-88
2023/05/09 05:57:18;;;;;;;6.50;5.57;;;21.50;69.60;;;;;;4890231;28;89244;-88
2023/05/09 05:59:46;;;;;;;6.32;5.68;;;21.50;69.70;;;;;;4891853;28;87004;-88
2023/05/09 06:02:12;;;;;;;6.32;5.60;;;21.50;69.70;;;;;;4890969;28;93633;-89
2023/05/09 06:04:38;;;;;;;6.47;5.70;;;21.50;69.80;;;;;;4882893;28;89291;-88
2023/05/09 06:07:03;;;;;;;6.53;5.43;;;21.50;69.90;;;;;;4889506;28;90557;-88
2023/05/09 06:09:29;;;;;;;7.75;5.53;;;21.50;69.80;;;;;;4889014;28;87808;-87
2023/05/09 06:11:55;;;;;;;8.38;6.03;;;21.50;69.70;;;;;;4888723;28;89330;-90
2023/05/09 06:16:58;;;;;;;5.05;4.55;;;21.60;69.20;;;;;;4896076;28;88277;-87
2023/05/09 06:19:24;;;;;;;5.10;4.43;;;21.60;67.30;;;;;;4888539;28;92573;-87
2023/05/09 06:21:50;;;;;;;6.13;4.55;;;21.60;68.00;;;;;;4890809;28;87133;-89
2023/05/09 06:24:15;;;;;;;5.28;4.57;;;21.60;67.60;;;;;;4890517;28;89655;-90
2023/05/09 06:26:41;;;;;;;7.20;5.05;;;21.60;67.70;;;;;;4890448;28;89690;-87
2023/05/09 06:29:07;;;;;;;7.88;4.88;;;21.70;68.20;;;;;;4891434;28;88007;-88
2023/05/09 06:31:37;;;;;;;6.85;5.60;;;21.80;68.30;;;;;;4889628;28;89677;-87
2023/05/09 06:34:06;;;;;;;7.82;5.15;;;21.80;68.30;;;;;;4887676;28;91176;-86
2023/05/09 06:36:32;;;;;;;6.80;5.40;;;21.70;68.10;;;;;;4904706;28;90255;-86
2023/05/09 06:38:58;;;;;;;8.40;5.07;;;21.70;68.30;;;;;;4890935;28;88276;-90
2023/05/09 06:41:24;;;;;;;7.53;5.20;;;21.80;67.90;;;;;;4893830;28;87686;-86
2023/05/09 06:43:50;;;;;;;9.52;5.97;;;21.80;68.50;;;;;;4874401;28;90373;-90
2023/05/09 06:46:16;;;;;;;10.55;6.00;;;21.80;68.30;;;;;;4883493;28;91132;-87
2023/05/09 06:48:42;;;;;;;10.32;5.45;;;21.80;68.90;;;;;;4907301;28;87527;-88
2023/05/09 06:51:08;;;;;;;7.28;5.05;;;21.80;69.00;;;;;;4890879;28;89163;-87
2023/05/09 06:53:34;;;;;;;7.57;5.35;;;21.70;69.70;;;;;;4892123;28;88099;-86
2023/05/09 06:55:59;;;;;;;7.85;5.97;;;21.70;69.60;;;;;;4889681;28;88426;-87
2023/05/09 06:58:26;;;;;;;8.65;6.15;;;21.70;69.80;;;;;;4891825;28;87509;-88
2023/05/09 07:00:52;;;;;;;14.10;6.28;;;21.70;70.00;;;;;;4891159;28;87574;-87
2023/05/09 07:03:18;;;;;;;13.15;5.85;;;21.80;69.80;;;;;;4888530;28;89593;-89
2023/05/09 07:05:43;;;;;;;10.77;5.07;;;21.80;69.80;;;;;;4891705;28;90533;-88
2023/05/09 07:08:09;;;;;;;9.07;5.75;;;21.90;69.50;;;;;;4896795;28;87587;-87
2023/05/09 07:10:35;;;;;;;10.45;5.53;;;21.80;69.70;;;;;;4896811;28;87169;-91
2023/05/09 07:13:01;;;;;;;8.82;5.05;;;21.90;69.30;;;;;;4897979;28;90118;-91
2023/05/09 07:15:26;;;;;;;10.20;5.75;;;21.90;69.10;;;;;;4897423;28;90295;-89
2023/05/09 07:17:52;;;;;;;8.10;5.63;;;21.90;69.00;;;;;;4911161;28;87672;-89
2023/05/09 07:20:18;;;;;;;8.20;5.22;;;21.80;69.00;;;;;;4894785;28;88334;-88
2023/05/09 07:22:43;;;;;;;9.50;5.68;;;21.80;69.20;;;;;;4893679;28;89671;-87
2023/05/09 07:25:09;;;;;;;7.93;5.20;;;21.80;69.30;;;;;;4897628;28;90808;-90
2023/05/09 07:27:35;;;;;;;8.68;5.55;;;21.80;69.20;;;;;;4908368;28;87983;-88
2023/05/09 07:30:05;;;;;;;8.77;5.50;;;21.80;69.60;;;;;;4901691;28;87646;-87
2023/05/09 07:32:31;;;;;;;10.00;5.03;;;21.80;69.40;;;;;;4903011;28;90453;-88
2023/05/09 07:34:57;;;;;;;10.60;5.55;;;21.80;69.80;;;;;;4887780;28;90428;-88
2023/05/09 07:37:23;;;;;;;8.13;5.03;;;21.80;69.90;;;;;;4886850;28;87751;-87
2023/05/09 07:39:48;;;;;;;11.90;5.10;;;21.80;69.70;;;;;;4902905;28;89605;-85
2023/05/09 07:42:15;;;;;;;8.60;5.22;;;21.90;69.30;;;;;;4887031;28;91391;-87
2023/05/09 07:44:40;;;;;;;10.70;5.68;;;21.90;69.30;;;;;;4888145;28;88254;-88
2023/05/09 07:47:07;;;;;;;8.95;5.20;;;21.80;69.60;;;;;;4888126;28;87495;-87
2023/05/09 07:49:33;;;;;;;8.38;5.32;;;21.90;69.80;;;;;;4902744;28;88471;-87
2023/05/09 07:51:59;;;;;;;11.88;5.35;;;21.80;70.10;;;;;;4888232;28;89036;-87
2023/05/09 07:54:25;;;;;;;12.20;6.20;;;21.80;70.30;;;;;;4890818;28;88277;-87
2023/05/09 07:56:51;;;;;;;11.10;5.80;;;21.80;70.60;;;;;;4888375;28;87769;-88
2023/05/09 07:59:17;;;;;;;12.80;6.13;;;21.70;70.60;;;;;;4888638;28;88698;-88
2023/05/09 08:01:43;;;;;;;8.80;5.82;;;21.70;70.70;;;;;;4889351;28;89331;-88
2023/05/09 08:04:08;;;;;;;8.65;5.45;;;21.70;70.50;;;;;;4903295;28;90086;-88
2023/05/09 08:06:36;;;;;;;8.10;5.45;;;21.70;70.50;;;;;;4889601;28;88227;-88
2023/05/09 08:09:01;;;;;;;8.77;5.70;;;21.70;70.70;;;;;;4887356;28;88227;-88
2023/05/09 08:11:27;;;;;;;9.80;5.70;;;21.60;70.60;;;;;;4887664;28;89348;-88
2023/05/09 08:13:53;;;;;;;7.97;5.38;;;21.60;70.60;;;;;;4895947;28;90352;-88
2023/05/09 08:16:19;;;;;;;9.52;5.68;;;21.60;70.50;;;;;;4902642;28;89009;-88
2023/05/09 08:18:45;;;;;;;13.13;6.35;;;21.60;70.60;;;;;;4887279;28;89798;-88
2023/05/09 08:21:11;;;;;;;10.68;6.00;;;21.60;70.70;;;;;;4885872;28;91053;-88
2023/05/09 08:23:37;;;;;;;11.68;6.25;;;21.60;70.30;;;;;;4887806;28;89243;-87
2023/05/09 08:26:02;;;;;;;8.20;5.45;;;21.60;70.50;;;;;;4890132;28;87577;-88
2023/05/09 08:28:28;;;;;;;10.95;5.68;;;21.60;70.50;;;;;;4887403;28;88354;-89
2023/05/09 08:30:55;;;;;;;10.27;5.53;;;21.60;70.60;;;;;;4887563;28;90915;-87
2023/05/09 08:33:21;;;;;;;7.93;5.32;;;21.60;70.50;;;;;;4903581;28;90333;-87
2023/05/09 08:35:51;;;;;;;8.98;5.05;;;21.60;70.50;;;;;;4879295;28;87260;-87
2023/05/09 08:38:16;;;;;;;9.43;5.32;;;21.60;70.60;;;;;;4887881;28;89703;-87
2023/05/09 08:40:42;;;;;;;12.52;5.65;;;21.60;70.80;;;;;;4886024;28;91850;-87
2023/05/09 08:43:10;;;;;;;10.25;6.03;;;21.60;70.10;;;;;;4885414;28;90434;-88
2023/05/09 08:45:45;;;;;;;9.25;6.10;;;21.80;70.00;;;;;;4886110;28;87656;-88
2023/05/09 08:48:13;;;;;;;10.32;5.45;;;21.80;69.70;;;;;;4900951;28;89789;-88
2023/05/09 08:50:39;;;;;;;9.20;5.37;;;21.80;69.70;;;;;;4901375;28;89045;-88
2023/05/09 08:53:05;;;;;;;9.23;5.95;;;21.80;70.00;;;;;;4902440;28;89996;-88
2023/05/09 08:55:31;;;;;;;10.27;6.57;;;21.70;69.90;;;;;;4887059;28;87637;-87
2023/05/09 08:57:57;;;;;;;10.18;6.15;;;21.80;69.90;;;;;;4890116;28;89557;-88
2023/05/09 09:00:24;;;;;;;9.70;5.80;;;21.80;70.10;;;;;;4890529;28;91050;-88
2023/05/09 09:02:51;;;;;;;12.07;7.15;;;21.70;70.10;;;;;;4905176;28;88575;-87
2023/05/09 09:05:17;;;;;;;12.07;5.45;;;21.70;70.20;;;;;;4885449;28;88958;-88
2023/05/09 09:07:45;;;;;;;12.10;6.07;;;21.70;70.20;;;;;;4897473;28;89613;-88
2023/05/09 09:10:12;;;;;;;13.65;7.18;;;21.70;70.30;;;;;;4889206;28;89263;-89
2023/05/09 09:12:39;;;;;;;15.38;7.18;;;21.80;70.20;;;;;;4890122;28;90390;-87
2023/05/09 09:15:09;;;;;;;11.55;5.72;;;21.70;70.30;;;;;;4887857;28;87599;-88
2023/05/09 09:17:38;;;;;;;13.82;5.70;;;21.70;70.40;;;;;;4905367;28;89248;-86
2023/05/09 09:20:08;;;;;;;14.77;6.43;;;21.70;70.50;;;;;;4904627;28;89914;-86
2023/05/09 09:22:34;;;;;;;17.20;6.45;;;21.70;70.70;;;;;;4889063;28;87562;-86
2023/05/09 09:25:00;;;;;;;12.23;5.97;;;21.70;70.80;;;;;;4887090;28;87834;-86
2023/05/09 09:27:26;;;;;;;11.00;6.00;;;21.70;71.00;;;;;;4887760;28;88023;-86
2023/05/09 09:29:52;;;;;;;11.43;6.18;;;21.70;71.00;;;;;;4903792;28;91495;-86
2023/05/09 09:32:18;;;;;;;15.27;6.40;;;21.70;71.10;;;;;;4889593;28;91881;-88
2023/05/09 09:34:48;;;;;;;13.32;6.40;;;21.70;71.10;;;;;;4890196;28;87613;-88
2023/05/09 09:37:23;;;;;;;12.18;6.25;;;21.70;71.20;;;;;;4901021;28;90560;-88
2023/05/09 09:39:55;;;;;;;13.57;6.53;;;21.80;71.00;;;;;;4895565;28;87899;-85
2023/05/09 09:42:22;;;;;;;13.32;6.43;;;21.80;71.30;;;;;;4887381;28;89104;-87
2023/05/09 09:45:08;;;;;;;10.20;6.10;;;21.80;71.30;;;;;;4903813;28;87657;-87
2023/05/09 09:47:34;;;;;;;17.60;7.63;;;21.80;71.40;;;;;;4905221;28;89536;-85
2023/05/09 09:50:18;;;;;;;12.82;6.53;;;21.80;71.40;;;;;;4888097;28;90324;-86
2023/05/09 09:52:56;;;;;;;10.45;5.82;;;21.90;71.30;;;;;;4889986;28;88649;-85
2023/05/09 09:55:23;;;;;;;12.73;6.50;;;21.80;71.30;;;;;;4903010;28;88079;-85
2023/05/09 09:57:49;;;;;;;15.40;6.40;;;21.90;71.60;;;;;;4887740;28;87247;-86
2023/05/09 10:00:18;;;;;;;12.27;5.80;;;21.90;71.70;;;;;;4886068;28;90249;-86
2023/05/09 10:02:50;;;;;;;13.10;6.53;;;21.90;72.30;;;;;;4888060;28;91377;-85
2023/05/09 10:05:30;;;;;;;13.43;6.68;;;21.90;71.70;;;;;;4888016;28;87741;-85
2023/05/09 10:07:58;;;;;;;10.93;6.43;;;21.90;71.90;;;;;;4902677;28;89858;-88
2023/05/09 10:10:32;;;;;;;14.53;6.10;;;21.90;71.60;;;;;;4901137;28;89504;-85
2023/05/09 10:13:03;;;;;;;9.52;5.45;;;22.00;71.50;;;;;;4902012;28;89947;-87
2023/05/09 10:15:30;;;;;;;13.23;6.15;;;22.00;71.70;;;;;;4888084;28;87763;-85
2023/05/09 10:17:58;;;;;;;12.05;6.45;;;22.00;71.90;;;;;;4887671;28;89585;-85
2023/05/09 10:20:24;;;;;;;10.93;6.47;;;22.00;71.90;;;;;;4889595;28;88894;-88
2023/05/09 10:22:54;;;;;;;14.15;6.43;;;22.00;71.70;;;;;;4903644;28;90113;-85
2023/05/09 10:25:21;;;;;;;17.92;6.40;;;22.00;72.10;;;;;;4890255;28;87913;-87
2023/05/09 10:27:49;;;;;;;14.70;6.70;;;22.10;71.00;;;;;;4889040;28;87715;-88
2023/05/09 10:30:25;;;;;;;15.47;7.63;;;22.10;71.40;;;;;;4901928;28;90543;-87
2023/05/09 10:32:57;;;;;;;16.38;6.97;;;22.00;71.70;;;;;;4889561;28;87624;-88
2023/05/09 10:35:31;;;;;;;15.57;7.55;;;22.10;72.00;;;;;;4888694;28;88011;-87
2023/05/09 10:37:58;;;;;;;12.10;6.82;;;22.20;72.30;;;;;;4887592;28;89628;-87
2023/05/09 10:40:26;;;;;;;14.07;6.55;;;22.10;72.40;;;;;;4888611;28;94218;-87
2023/05/09 10:42:52;;;;;;;13.88;6.97;;;22.10;72.80;;;;;;4888086;28;90557;-90
2023/05/09 10:45:20;;;;;;;15.85;6.43;;;22.10;73.00;;;;;;4905763;28;88675;-88
2023/05/09 10:47:48;;;;;;;12.15;5.78;;;22.20;71.90;;;;;;4903641;28;87867;-87
2023/05/09 10:50:16;;;;;;;12.68;6.03;;;22.20;72.00;;;;;;4887489;28;90069;-86
2023/05/09 10:53:10;;;;;;;15.80;6.35;;;22.20;72.50;;;;;;4888709;28;87840;-87
2023/05/09 10:55:51;;;;;;;11.07;5.93;;;22.20;72.40;;;;;;4888752;28;87694;-88
2023/05/09 10:58:21;;;;;;;14.05;6.25;;;22.20;72.30;;;;;;4905313;28;88179;-89
2023/05/09 11:00:48;;;;;;;10.85;6.28;;;22.10;72.40;;;;;;4906439;28;91771;-89
2023/05/09 11:03:14;;;;;;;12.23;5.97;;;22.10;72.80;;;;;;4906254;28;88754;-87
2023/05/09 11:05:41;;;;;;;10.43;5.50;;;22.10;72.60;;;;;;4892376;28;87493;-88
2023/05/09 11:08:27;;;;;;;12.13;6.15;;;22.10;73.00;;;;;;4889539;28;88631;-88
2023/05/09 11:10:55;;;;;;;12.75;6.22;;;22.10;73.00;;;;;;4888396;28;90425;-86
2023/05/09 11:13:29;;;;;;;15.95;6.43;;;22.10;73.20;;;;;;4905789;28;91132;-86
2023/05/09 11:15:58;;;;;;;11.98;5.65;;;22.10;73.30;;;;;;4904576;28;88051;-86
2023/05/09 11:18:24;;;;;;;11.63;6.22;;;22.10;72.90;;;;;;4906760;28;89541;-86
2023/05/09 11:20:50;;;;;;;13.13;6.38;;;22.10;73.30;;;;;;4902933;28;89442;-84
2023/05/09 11:23:19;;;;;;;18.67;6.95;;;22.10;73.30;;;;;;4889713;28;87756;-84
2023/05/09 11:25:46;;;;;;;9.57;5.93;;;22.20;73.30;;;;;;4891870;28;87379;-86
2023/05/09 11:28:29;;;;;;;14.30;6.43;;;22.10;73.00;;;;;;4909639;28;89703;-86
2023/05/09 11:31:09;;;;;;;9.38;6.30;;;22.10;73.20;;;;;;4907796;28;89527;-88
2023/05/09 11:33:36;;;;;;;12.70;6.18;;;22.10;73.30;;;;;;4890716;28;87971;-87
2023/05/09 11:36:29;;;;;;;13.02;5.65;;;22.20;73.20;;;;;;4890651;28;88739;-86
2023/05/09 11:39:08;;;;;;;16.30;6.00;;;22.20;73.30;;;;;;4906132;28;89376;-87
2023/05/09 11:41:41;;;;;;;;;;;22.10;73.60;;;;;;4907033;28;91670;-87
2023/05/09 11:44:17;;;;;;;12.63;6.10;;;22.10;73.80;;;;;;4908219;28;88832;-88
2023/05/09 11:46:47;;;;;;;10.20;5.97;;;22.10;73.70;;;;;;4906333;28;87467;-88
2023/05/09 11:49:14;;;;;;;11.18;6.13;;;22.10;73.70;;;;;;4889103;28;90395;-87
2023/05/09 11:51:40;;;;;;;13.55;6.28;;;22.10;73.70;;;;;;4889321;28;90402;-88
2023/05/09 11:54:07;;;;;;;14.57;6.45;;;22.10;73.90;;;;;;4889181;28;90065;-86
2023/05/09 11:56:35;;;;;;;10.00;6.07;;;22.10;74.00;;;;;;4909915;28;87802;-88
2023/05/09 11:59:01;;;;;;;9.68;5.15;;;22.10;73.90;;;;;;4890816;28;88155;-85
2023/05/09 12:01:31;;;;;;;11.73;5.70;;;22.10;72.50;;;;;;4892120;28;88898;-85
2023/05/09 12:03:58;;;;;;;11.25;5.40;;;22.10;73.30;;;;;;4892503;28;87610;-87
2023/05/09 12:06:28;;;;;;;13.70;5.47;;;22.00;73.70;;;;;;4891616;28;87738;-86
2023/05/09 12:08:56;;;;;;;10.85;5.60;;;22.00;73.70;;;;;;4883224;28;89464;-86
2023/05/09 12:11:22;;;;;;;10.30;5.60;;;22.00;72.90;;;;;;4890126;28;90571;-88
2023/05/09 12:13:51;;;;;;;8.05;4.65;;;22.10;73.10;;;;;;4890119;28;89261;-87
2023/05/09 12:16:17;;;;;;;10.70;5.78;;;22.10;73.00;;;;;;4899297;28;87541;-87
2023/05/09 12:18:52;;;;;;;11.40;4.72;;;22.10;73.00;;;;;;4891347;28;87455;-86
2023/05/09 12:21:19;;;;;;;8.80;5.03;;;22.10;73.00;;;;;;4888180;28;91322;-86
2023/05/09 12:23:47;;;;;;;9.80;5.13;;;22.10;72.90;;;;;;4887688;28;90350;-86
2023/05/09 12:26:13;;;;;;;11.20;5.47;;;22.10;72.80;;;;;;4906569;28;88764;-86
2023/05/09 12:28:40;;;;;;;9.93;4.93;;;22.10;72.70;;;;;;4890858;28;89041;-88
2023/05/09 12:31:06;;;;;;;7.55;4.22;;;22.00;72.60;;;;;;4888196;28;91306;-86
2023/05/09 12:33:33;;;;;;;7.53;4.22;;;22.10;72.40;;;;;;4908318;28;90496;-86
2023/05/09 12:36:09;;;;;;;9.02;4.93;;;22.00;72.40;;;;;;4895498;28;87956;-85
2023/05/09 12:38:34;;;;;;;8.20;4.45;;;22.00;72.60;;;;;;4896154;28;87347;-87
2023/05/09 12:41:01;;;;;;;9.63;4.43;;;22.00;72.40;;;;;;4883699;28;90102;-86
2023/05/09 12:43:30;;;;;;;8.80;4.07;;;22.00;72.30;;;;;;4893303;28;90720;-86
2023/05/09 12:45:57;;;;;;;10.98;4.68;;;22.00;72.20;;;;;;4896291;28;87389;-87
2023/05/09 12:48:23;;;;;;;17.83;7.25;;;22.00;72.20;;;;;;4887059;28;89834;-87